createdAt,value
2019-02-24T00:00:28.780Z,1025.88
2019-02-24T00:01:09.822Z,1025.85
2019-02-24T00:01:50.637Z,1025.9
2019-02-24T00:02:31.313Z,1025.86
2019-02-24T00:03:11.915Z,1025.87
2019-02-24T00:03:52.583Z,1025.87
2019-02-24T00:04:33.187Z,1025.91
2019-02-24T00:05:13.778Z,1025.9
2019-02-24T00:05:54.370Z,1025.92
2019-02-24T00:06:34.970Z,1025.88
2019-02-24T00:07:15.583Z,1025.88
2019-02-24T00:07:56.178Z,1025.9
2019-02-24T00:08:36.777Z,1025.93
2019-02-24T00:09:17.388Z,1025.93
2019-02-24T00:09:58.024Z,1025.93
2019-02-24T00:10:38.648Z,1025.97
2019-02-24T00:11:19.254Z,1025.99
2019-02-24T00:11:59.891Z,1026.03
2019-02-24T00:12:40.499Z,1026.01
2019-02-24T00:13:21.141Z,1026.02
2019-02-24T00:14:01.786Z,1026.04
2019-02-24T00:14:42.418Z,1026.02
2019-02-24T00:15:23.100Z,1026.01
2019-02-24T00:16:03.728Z,1026.04
2019-02-24T00:16:44.374Z,1026.04
2019-02-24T00:17:24.964Z,1026
2019-02-24T00:18:05.577Z,1026.03
2019-02-24T00:18:46.188Z,1026.05
2019-02-24T00:19:26.947Z,1026.08
2019-02-24T00:20:07.563Z,1026.08
2019-02-24T00:20:48.197Z,1026.07
2019-02-24T00:21:32.607Z,1026.09
2019-02-24T00:22:13.243Z,1026.04
2019-02-24T00:22:53.895Z,1026.09
2019-02-24T00:23:34.529Z,1026.07
2019-02-24T00:24:15.169Z,1026.11
2019-02-24T00:24:55.779Z,1026.09
2019-02-24T00:25:36.383Z,1026.12
2019-02-24T00:26:16.977Z,1026.12
2019-02-24T00:26:57.636Z,1026.09
2019-02-24T00:27:38.288Z,1026.14
2019-02-24T00:28:18.889Z,1026.15
2019-02-24T00:28:59.515Z,1026.17
2019-02-24T00:29:40.109Z,1026.18
2019-02-24T00:30:20.813Z,1026.18
2019-02-24T00:31:01.428Z,1026.16
2019-02-24T00:31:42.079Z,1026.16
2019-02-24T00:32:22.691Z,1026.15
2019-02-24T00:33:03.327Z,1026.14
2019-02-24T00:33:43.942Z,1026.14
2019-02-24T00:34:24.561Z,1026.15
2019-02-24T00:35:05.151Z,1026.17
2019-02-24T00:35:45.793Z,1026.17
2019-02-24T00:36:26.406Z,1026.21
2019-02-24T00:37:07.032Z,1026.17
2019-02-24T00:37:47.652Z,1026.21
2019-02-24T00:38:28.346Z,1026.22
2019-02-24T00:39:09.109Z,1026.21
2019-02-24T00:39:49.731Z,1026.22
2019-02-24T00:40:30.393Z,1026.2
2019-02-24T00:41:10.998Z,1026.21
2019-02-24T00:41:51.671Z,1026.21
2019-02-24T00:42:32.286Z,1026.23
2019-02-24T00:43:12.880Z,1026.24
2019-02-24T00:43:53.513Z,1026.23
2019-02-24T00:44:34.099Z,1026.23
2019-02-24T00:45:14.757Z,1026.22
2019-02-24T00:45:55.357Z,1026.25
2019-02-24T00:46:35.999Z,1026.26
2019-02-24T00:47:16.603Z,1026.26
2019-02-24T00:47:57.201Z,1026.26
2019-02-24T00:48:37.893Z,1026.28
2019-02-24T00:49:18.509Z,1026.32
2019-02-24T00:49:59.125Z,1026.31
2019-02-24T00:50:39.755Z,1026.33
2019-02-24T00:51:20.375Z,1026.34
2019-02-24T00:52:00.999Z,1026.32
2019-02-24T00:52:41.667Z,1026.34
2019-02-24T00:53:22.397Z,1026.32
2019-02-24T00:54:02.999Z,1026.33
2019-02-24T00:54:43.587Z,1026.35
2019-02-24T00:55:24.215Z,1026.36
2019-02-24T00:56:04.803Z,1026.34
2019-02-24T00:56:45.435Z,1026.34
2019-02-24T00:57:26.045Z,1026.34
2019-02-24T00:58:06.655Z,1026.35
2019-02-24T00:58:47.248Z,1026.35
2019-02-24T00:59:27.857Z,1026.38
2019-02-24T01:00:08.492Z,1026.33
2019-02-24T01:00:49.071Z,1026.36
2019-02-24T01:01:29.687Z,1026.37
2019-02-24T01:02:10.294Z,1026.41
2019-02-24T01:02:50.893Z,1026.44
2019-02-24T01:03:31.490Z,1026.43
2019-02-24T01:04:12.129Z,1026.46
2019-02-24T01:04:52.729Z,1026.49
2019-02-24T01:05:33.331Z,1026.5
2019-02-24T01:06:13.997Z,1026.51
2019-02-24T01:06:54.631Z,1026.51
2019-02-24T01:07:35.233Z,1026.51
2019-02-24T01:08:15.833Z,1026.58
2019-02-24T01:08:56.435Z,1026.53
2019-02-24T01:09:37.035Z,1026.59
2019-02-24T01:10:17.635Z,1026.59
2019-02-24T01:10:58.232Z,1026.59
2019-02-24T01:11:38.837Z,1026.63
2019-02-24T01:12:19.479Z,1026.64
2019-02-24T01:13:00.095Z,1026.63
2019-02-24T01:13:40.717Z,1026.62
2019-02-24T01:14:21.309Z,1026.62
2019-02-24T01:15:01.907Z,1026.63
2019-02-24T01:15:42.500Z,1026.63
2019-02-24T01:16:23.103Z,1026.64
2019-02-24T01:17:03.724Z,1026.69
2019-02-24T01:17:44.319Z,1026.67
2019-02-24T01:18:24.931Z,1026.69
2019-02-24T01:19:05.551Z,1026.66
2019-02-24T01:19:46.185Z,1026.65
2019-02-24T01:20:26.821Z,1026.69
2019-02-24T01:21:07.451Z,1026.67
2019-02-24T01:21:48.075Z,1026.68
2019-02-24T01:22:28.675Z,1026.68
2019-02-24T01:23:09.287Z,1026.67
2019-02-24T01:23:49.883Z,1026.66
2019-02-24T01:24:30.507Z,1026.65
2019-02-24T01:25:11.119Z,1026.69
2019-02-24T01:25:51.739Z,1026.68
2019-02-24T01:26:32.359Z,1026.69
2019-02-24T01:27:12.947Z,1026.68
2019-02-24T01:27:53.543Z,1026.69
2019-02-24T01:28:34.147Z,1026.68
2019-02-24T01:29:14.749Z,1026.71
2019-02-24T01:29:55.358Z,1026.71
2019-02-24T01:30:35.977Z,1026.72
2019-02-24T01:31:16.593Z,1026.75
2019-02-24T01:31:57.195Z,1026.7
2019-02-24T01:32:37.800Z,1026.72
2019-02-24T01:33:18.415Z,1026.76
2019-02-24T01:33:59.077Z,1026.75
2019-02-24T01:34:39.687Z,1026.76
2019-02-24T01:35:20.271Z,1026.76
2019-02-24T01:36:00.859Z,1026.76
2019-02-24T01:36:41.477Z,1026.74
2019-02-24T01:37:22.099Z,1026.74
2019-02-24T01:38:02.701Z,1026.72
2019-02-24T01:38:43.299Z,1026.76
2019-02-24T01:39:23.917Z,1026.77
2019-02-24T01:40:04.511Z,1026.77
2019-02-24T01:40:45.091Z,1026.76
2019-02-24T01:41:25.697Z,1026.79
2019-02-24T01:42:06.315Z,1026.82
2019-02-24T01:42:46.951Z,1026.81
2019-02-24T01:43:27.585Z,1026.82
2019-02-24T01:44:08.198Z,1026.79
2019-02-24T01:44:48.809Z,1026.8
2019-02-24T01:45:29.395Z,1026.82
2019-02-24T01:46:10.004Z,1026.81
2019-02-24T01:46:50.883Z,1026.83
2019-02-24T01:47:31.489Z,1026.84
2019-02-24T01:48:12.155Z,1026.79
2019-02-24T01:48:52.759Z,1026.83
2019-02-24T01:49:33.357Z,1026.84
2019-02-24T01:50:13.967Z,1026.87
2019-02-24T01:50:54.583Z,1026.85
2019-02-24T01:51:35.185Z,1026.83
2019-02-24T01:52:15.808Z,1026.89
2019-02-24T01:52:56.421Z,1026.86
2019-02-24T01:53:37.064Z,1026.86
2019-02-24T01:54:17.691Z,1026.85
2019-02-24T01:54:58.306Z,1026.88
2019-02-24T01:55:38.936Z,1026.86
2019-02-24T01:56:19.547Z,1026.87
2019-02-24T01:57:00.154Z,1026.91
2019-02-24T01:57:40.765Z,1026.9
2019-02-24T01:58:21.367Z,1026.9
2019-02-24T01:59:01.997Z,1026.95
2019-02-24T01:59:42.606Z,1026.9
2019-02-24T02:00:23.209Z,1026.92
2019-02-24T02:01:03.821Z,1026.9
2019-02-24T02:01:44.425Z,1026.89
2019-02-24T02:02:25.050Z,1026.87
2019-02-24T02:03:05.663Z,1026.91
2019-02-24T02:03:46.283Z,1026.92
2019-02-24T02:04:26.871Z,1026.89
2019-02-24T02:05:07.479Z,1026.9
2019-02-24T02:05:48.103Z,1026.92
2019-02-24T02:06:28.725Z,1026.89
2019-02-24T02:07:09.334Z,1026.93
2019-02-24T02:08:04.500Z,1026.95
2019-02-24T02:08:45.083Z,1026.94
2019-02-24T02:09:25.715Z,1026.95
2019-02-24T02:10:06.354Z,1026.99
2019-02-24T02:10:46.988Z,1026.96
2019-02-24T02:11:27.613Z,1026.97
2019-02-24T02:12:08.211Z,1026.97
2019-02-24T02:12:48.855Z,1026.94
2019-02-24T02:13:29.505Z,1026.97
2019-02-24T02:14:10.105Z,1026.93
2019-02-24T02:14:50.743Z,1026.94
2019-02-24T02:15:31.338Z,1026.93
2019-02-24T02:16:11.951Z,1026.92
2019-02-24T02:16:52.559Z,1026.89
2019-02-24T02:17:33.158Z,1026.92
2019-02-24T02:18:13.753Z,1026.91
2019-02-24T02:18:54.377Z,1026.84
2019-02-24T02:19:35.013Z,1026.89
2019-02-24T02:20:15.633Z,1026.85
2019-02-24T02:20:56.233Z,1026.89
2019-02-24T02:21:36.849Z,1026.86
2019-02-24T02:22:17.457Z,1026.83
2019-02-24T02:22:58.080Z,1026.85
2019-02-24T02:23:38.693Z,1026.87
2019-02-24T02:24:19.319Z,1026.89
2019-02-24T02:24:59.967Z,1026.9
2019-02-24T02:25:40.579Z,1026.91
2019-02-24T02:26:21.195Z,1026.92
2019-02-24T02:27:01.785Z,1026.89
2019-02-24T02:27:42.433Z,1026.92
2019-02-24T02:28:23.055Z,1026.92
2019-02-24T02:29:03.667Z,1026.88
2019-02-24T02:29:44.291Z,1026.89
2019-02-24T02:30:24.891Z,1026.88
2019-02-24T02:31:05.517Z,1026.94
2019-02-24T02:31:46.171Z,1026.95
2019-02-24T02:32:26.946Z,1026.91
2019-02-24T02:33:07.597Z,1026.94
2019-02-24T02:33:48.230Z,1026.9
2019-02-24T02:34:28.869Z,1026.87
2019-02-24T02:35:09.499Z,1026.86
2019-02-24T02:35:50.154Z,1026.88
2019-02-24T02:36:30.832Z,1026.88
2019-02-24T02:37:11.445Z,1026.87
2019-02-24T02:37:52.052Z,1026.89
2019-02-24T02:38:32.657Z,1026.84
2019-02-24T02:39:13.335Z,1026.84
2019-02-24T02:39:53.943Z,1026.84
2019-02-24T02:40:34.719Z,1026.85
2019-02-24T02:41:15.313Z,1026.8
2019-02-24T02:41:55.931Z,1026.84
2019-02-24T02:42:36.535Z,1026.84
2019-02-24T02:43:17.113Z,1026.83
2019-02-24T02:43:57.709Z,1026.8
2019-02-24T02:44:38.313Z,1026.81
2019-02-24T02:45:18.921Z,1026.86
2019-02-24T02:45:59.537Z,1026.85
2019-02-24T02:46:40.169Z,1026.89
2019-02-24T02:47:20.763Z,1026.86
2019-02-24T02:48:01.349Z,1026.88
2019-02-24T02:48:41.951Z,1026.88
2019-02-24T02:49:22.557Z,1026.93
2019-02-24T02:50:03.156Z,1026.91
2019-02-24T02:50:43.756Z,1026.91
2019-02-24T02:51:24.407Z,1026.94
2019-02-24T02:52:05.003Z,1026.92
2019-02-24T02:52:45.621Z,1026.93
2019-02-24T02:53:26.207Z,1026.93
2019-02-24T02:54:06.815Z,1026.9
2019-02-24T02:54:47.433Z,1026.9
2019-02-24T02:55:28.027Z,1026.92
2019-02-24T02:56:08.650Z,1026.93
2019-02-24T02:56:49.259Z,1026.91
2019-02-24T02:57:29.870Z,1026.92
2019-02-24T02:58:10.489Z,1026.94
2019-02-24T02:58:54.142Z,1026.96
2019-02-24T02:59:31.682Z,1026.96
2019-02-24T03:00:12.282Z,1026.97
2019-02-24T03:00:52.898Z,1026.95
2019-02-24T03:01:33.502Z,1026.96
2019-02-24T03:02:23.698Z,1026.94
2019-02-24T03:02:54.707Z,1026.97
2019-02-24T03:03:35.308Z,1026.94
2019-02-24T03:04:15.903Z,1026.93
2019-02-24T03:04:56.501Z,1026.92
2019-02-24T03:05:37.097Z,1026.96
2019-02-24T03:06:17.707Z,1026.93
2019-02-24T03:06:58.320Z,1026.94
2019-02-24T03:07:38.919Z,1027
2019-02-24T03:08:19.521Z,1026.99
2019-02-24T03:09:00.125Z,1027
2019-02-24T03:09:40.715Z,1026.97
2019-02-24T03:10:21.317Z,1027
2019-02-24T03:11:01.914Z,1027.02
2019-02-24T03:11:42.521Z,1027
2019-02-24T03:12:23.125Z,1027
2019-02-24T03:13:03.731Z,1027.02
2019-02-24T03:13:44.331Z,1027.03
2019-02-24T03:14:24.932Z,1027.02
2019-02-24T03:15:05.559Z,1027.03
2019-02-24T03:15:46.147Z,1027.08
2019-02-24T03:16:26.750Z,1027.07
2019-02-24T03:17:07.349Z,1027.04
2019-02-24T03:17:47.959Z,1027.05
2019-02-24T03:18:28.557Z,1027.08
2019-02-24T03:19:09.172Z,1027.07
2019-02-24T03:19:49.761Z,1027.11
2019-02-24T03:20:30.345Z,1027.1
2019-02-24T03:21:10.944Z,1027.11
2019-02-24T03:21:51.553Z,1027.12
2019-02-24T03:22:32.171Z,1027.16
2019-02-24T03:23:12.779Z,1027.16
2019-02-24T03:23:53.388Z,1027.16
2019-02-24T03:24:33.974Z,1027.15
2019-02-24T03:25:14.557Z,1027.14
2019-02-24T03:25:55.155Z,1027.18
2019-02-24T03:26:35.786Z,1027.14
2019-02-24T03:27:16.386Z,1027.16
2019-02-24T03:27:56.986Z,1027.14
2019-02-24T03:28:37.591Z,1027.19
2019-02-24T03:29:18.187Z,1027.18
2019-02-24T03:29:58.795Z,1027.13
2019-02-24T03:30:39.382Z,1027.22
2019-02-24T03:31:19.998Z,1027.19
2019-02-24T03:32:00.595Z,1027.21
2019-02-24T03:32:41.195Z,1027.23
2019-02-24T03:33:21.802Z,1027.23
2019-02-24T03:34:02.402Z,1027.22
2019-02-24T03:34:42.993Z,1027.23
2019-02-24T03:35:23.587Z,1027.22
2019-02-24T03:36:04.205Z,1027.24
2019-02-24T03:36:44.784Z,1027.23
2019-02-24T03:37:25.418Z,1027.22
2019-02-24T03:38:06.005Z,1027.21
2019-02-24T03:38:46.614Z,1027.23
2019-02-24T03:39:27.225Z,1027.22
2019-02-24T03:40:07.821Z,1027.17
2019-02-24T03:40:48.432Z,1027.23
2019-02-24T03:41:29.024Z,1027.21
2019-02-24T03:42:09.615Z,1027.22
2019-02-24T03:42:50.213Z,1027.22
2019-02-24T03:43:30.812Z,1027.19
2019-02-24T03:44:11.425Z,1027.18
2019-02-24T03:44:52.036Z,1027.21
2019-02-24T03:45:32.636Z,1027.19
2019-02-24T03:46:13.230Z,1027.22
2019-02-24T03:46:53.825Z,1027.2
2019-02-24T03:47:34.430Z,1027.23
2019-02-24T03:48:15.029Z,1027.21
2019-02-24T03:48:55.640Z,1027.19
2019-02-24T03:49:36.239Z,1027.21
2019-02-24T03:50:16.837Z,1027.24
2019-02-24T03:50:57.453Z,1027.24
2019-02-24T03:51:38.059Z,1027.26
2019-02-24T03:52:18.658Z,1027.26
2019-02-24T03:52:59.250Z,1027.27
2019-02-24T03:53:39.866Z,1027.27
2019-02-24T03:54:20.498Z,1027.33
2019-02-24T03:55:01.102Z,1027.3
2019-02-24T03:55:41.707Z,1027.29
2019-02-24T03:56:22.302Z,1027.31
2019-02-24T03:57:02.921Z,1027.33
2019-02-24T03:57:43.522Z,1027.3
2019-02-24T03:58:24.111Z,1027.31
2019-02-24T03:59:14.370Z,1027.33
2019-02-24T03:59:45.318Z,1027.32
2019-02-24T04:00:25.929Z,1027.34
2019-02-24T04:01:06.506Z,1027.36
2019-02-24T04:01:47.110Z,1027.35
2019-02-24T04:02:27.728Z,1027.36
2019-02-24T04:03:08.313Z,1027.32
2019-02-24T04:03:48.915Z,1027.34
2019-02-24T04:04:29.505Z,1027.37
2019-02-24T04:05:10.108Z,1027.42
2019-02-24T04:05:50.712Z,1027.4
2019-02-24T04:06:31.325Z,1027.42
2019-02-24T04:07:11.947Z,1027.36
2019-02-24T04:07:52.553Z,1027.38
2019-02-24T04:08:33.162Z,1027.38
2019-02-24T04:09:13.779Z,1027.41
2019-02-24T04:09:54.389Z,1027.37
2019-02-24T04:10:34.999Z,1027.36
2019-02-24T04:11:15.616Z,1027.37
2019-02-24T04:11:56.228Z,1027.35
2019-02-24T04:12:36.825Z,1027.34
2019-02-24T04:13:17.435Z,1027.33
2019-02-24T04:13:58.025Z,1027.34
2019-02-24T04:14:38.667Z,1027.32
2019-02-24T04:15:19.255Z,1027.36
2019-02-24T04:15:59.864Z,1027.29
2019-02-24T04:16:40.464Z,1027.3
2019-02-24T04:17:21.082Z,1027.3
2019-02-24T04:18:01.675Z,1027.29
2019-02-24T04:18:42.268Z,1027.33
2019-02-24T04:19:22.854Z,1027.31
2019-02-24T04:20:03.459Z,1027.3
2019-02-24T04:20:44.078Z,1027.31
2019-02-24T04:21:24.683Z,1027.34
2019-02-24T04:22:05.274Z,1027.35
2019-02-24T04:22:45.875Z,1027.35
2019-02-24T04:23:26.498Z,1027.37
2019-02-24T04:24:07.130Z,1027.36
2019-02-24T04:24:47.740Z,1027.38
2019-02-24T04:25:28.369Z,1027.37
2019-02-24T04:26:08.944Z,1027.39
2019-02-24T04:26:49.564Z,1027.45
2019-02-24T04:27:30.172Z,1027.42
2019-02-24T04:28:10.784Z,1027.42
2019-02-24T04:28:51.408Z,1027.45
2019-02-24T04:29:32.004Z,1027.44
2019-02-24T04:30:12.638Z,1027.46
2019-02-24T04:30:53.244Z,1027.49
2019-02-24T04:31:33.824Z,1027.53
2019-02-24T04:32:14.418Z,1027.52
2019-02-24T04:32:55.014Z,1027.55
2019-02-24T04:33:35.620Z,1027.56
2019-02-24T04:34:16.226Z,1027.55
2019-02-24T04:34:56.835Z,1027.6
2019-02-24T04:35:37.421Z,1027.61
2019-02-24T04:36:18.039Z,1027.6
2019-02-24T04:36:58.668Z,1027.61
2019-02-24T04:37:39.262Z,1027.62
2019-02-24T04:38:19.882Z,1027.61
2019-02-24T04:39:00.472Z,1027.64
2019-02-24T04:39:41.080Z,1027.61
2019-02-24T04:40:21.690Z,1027.62
2019-02-24T04:41:02.298Z,1027.62
2019-02-24T04:41:42.894Z,1027.64
2019-02-24T04:42:23.490Z,1027.63
2019-02-24T04:43:04.085Z,1027.66
2019-02-24T04:43:44.694Z,1027.62
2019-02-24T04:44:25.300Z,1027.65
2019-02-24T04:45:05.913Z,1027.65
2019-02-24T04:45:46.514Z,1027.65
2019-02-24T04:46:27.119Z,1027.63
2019-02-24T04:47:07.730Z,1027.63
2019-02-24T04:47:48.359Z,1027.6
2019-02-24T04:48:28.948Z,1027.59
2019-02-24T04:49:09.550Z,1027.59
2019-02-24T04:49:50.147Z,1027.62
2019-02-24T04:50:30.790Z,1027.63
2019-02-24T04:51:11.378Z,1027.64
2019-02-24T04:51:51.970Z,1027.67
2019-02-24T04:52:32.568Z,1027.67
2019-02-24T04:53:13.166Z,1027.65
2019-02-24T04:53:53.774Z,1027.69
2019-02-24T04:54:34.376Z,1027.71
2019-02-24T04:55:14.973Z,1027.75
2019-02-24T04:55:55.572Z,1027.73
2019-02-24T04:56:36.174Z,1027.74
2019-02-24T04:57:16.782Z,1027.72
2019-02-24T04:57:57.372Z,1027.73
2019-02-24T04:58:37.986Z,1027.69
2019-02-24T04:59:18.586Z,1027.72
2019-02-24T04:59:59.176Z,1027.69
2019-02-24T05:00:39.779Z,1027.68
2019-02-24T05:01:20.398Z,1027.67
2019-02-24T05:02:00.996Z,1027.65
2019-02-24T05:02:41.603Z,1027.67
2019-02-24T05:03:22.205Z,1027.69
2019-02-24T05:04:02.874Z,1027.68
2019-02-24T05:04:43.486Z,1027.66
2019-02-24T05:05:24.072Z,1027.65
2019-02-24T05:06:04.674Z,1027.65
2019-02-24T05:06:45.275Z,1027.67
2019-02-24T05:07:25.876Z,1027.65
2019-02-24T05:08:06.464Z,1027.65
2019-02-24T05:08:47.051Z,1027.64
2019-02-24T05:09:27.678Z,1027.65
2019-02-24T05:10:08.290Z,1027.63
2019-02-24T05:10:48.899Z,1027.65
2019-02-24T05:11:29.504Z,1027.69
2019-02-24T05:12:10.130Z,1027.67
2019-02-24T05:12:50.756Z,1027.64
2019-02-24T05:13:31.354Z,1027.65
2019-02-24T05:14:11.948Z,1027.64
2019-02-24T05:14:52.538Z,1027.62
2019-02-24T05:15:33.133Z,1027.66
2019-02-24T05:16:13.802Z,1027.62
2019-02-24T05:16:54.404Z,1027.62
2019-02-24T05:17:35.002Z,1027.63
2019-02-24T05:18:15.614Z,1027.61
2019-02-24T05:18:56.202Z,1027.64
2019-02-24T05:19:36.790Z,1027.62
2019-02-24T05:20:17.390Z,1027.64
2019-02-24T05:20:57.990Z,1027.61
2019-02-24T05:21:38.575Z,1027.65
2019-02-24T05:22:19.190Z,1027.64
2019-02-24T05:22:59.825Z,1027.65
2019-02-24T05:23:40.425Z,1027.66
2019-02-24T05:24:21.014Z,1027.68
2019-02-24T05:25:01.626Z,1027.67
2019-02-24T05:25:42.208Z,1027.66
2019-02-24T05:26:22.805Z,1027.65
2019-02-24T05:27:03.405Z,1027.66
2019-02-24T05:27:44.014Z,1027.63
2019-02-24T05:28:24.620Z,1027.67
2019-02-24T05:29:05.225Z,1027.64
2019-02-24T05:29:46.434Z,1027.6
2019-02-24T05:30:26.416Z,1027.64
2019-02-24T05:31:07.020Z,1027.63
2019-02-24T05:31:47.618Z,1027.64
2019-02-24T05:32:28.249Z,1027.68
2019-02-24T05:33:08.848Z,1027.71
2019-02-24T05:33:49.462Z,1027.72
2019-02-24T05:34:30.071Z,1027.72
2019-02-24T05:35:10.670Z,1027.7
2019-02-24T05:35:51.293Z,1027.68
2019-02-24T05:36:31.890Z,1027.67
2019-02-24T05:37:12.486Z,1027.66
2019-02-24T05:37:53.089Z,1027.65
2019-02-24T05:38:33.709Z,1027.66
2019-02-24T05:39:14.310Z,1027.64
2019-02-24T05:39:54.942Z,1027.64
2019-02-24T05:40:35.530Z,1027.64
2019-02-24T05:41:16.126Z,1027.61
2019-02-24T05:41:56.728Z,1027.62
2019-02-24T05:42:37.338Z,1027.6
2019-02-24T05:43:17.960Z,1027.67
2019-02-24T05:43:58.595Z,1027.63
2019-02-24T05:44:39.243Z,1027.65
2019-02-24T05:45:19.800Z,1027.66
2019-02-24T05:46:00.402Z,1027.65
2019-02-24T05:46:41.011Z,1027.62
2019-02-24T05:47:21.618Z,1027.62
2019-02-24T05:48:02.223Z,1027.65
2019-02-24T05:48:42.826Z,1027.65
2019-02-24T05:49:23.425Z,1027.63
2019-02-24T05:50:04.051Z,1027.63
2019-02-24T05:50:44.658Z,1027.65
2019-02-24T05:51:25.252Z,1027.59
2019-02-24T05:52:05.861Z,1027.64
2019-02-24T05:52:46.475Z,1027.64
2019-02-24T05:53:27.091Z,1027.63
2019-02-24T05:54:07.695Z,1027.67
2019-02-24T05:54:48.307Z,1027.67
2019-02-24T05:55:28.904Z,1027.68
2019-02-24T05:56:09.508Z,1027.67
2019-02-24T05:56:50.137Z,1027.69
2019-02-24T05:57:30.730Z,1027.71
2019-02-24T05:58:11.340Z,1027.72
2019-02-24T05:58:51.930Z,1027.74
2019-02-24T05:59:32.532Z,1027.71
2019-02-24T06:00:13.160Z,1027.72
2019-02-24T06:00:53.768Z,1027.73
2019-02-24T06:01:34.366Z,1027.73
2019-02-24T06:02:14.956Z,1027.74
2019-02-24T06:02:55.557Z,1027.79
2019-02-24T06:03:36.152Z,1027.82
2019-02-24T06:04:16.770Z,1027.8
2019-02-24T06:04:57.360Z,1027.8
2019-02-24T06:05:37.960Z,1027.8
2019-02-24T06:06:18.577Z,1027.8
2019-02-24T06:06:59.174Z,1027.82
2019-02-24T06:07:39.770Z,1027.78
2019-02-24T06:08:20.372Z,1027.82
2019-02-24T06:09:00.980Z,1027.82
2019-02-24T06:09:41.582Z,1027.82
2019-02-24T06:10:22.174Z,1027.87
2019-02-24T06:11:02.800Z,1027.83
2019-02-24T06:11:43.402Z,1027.79
2019-02-24T06:12:24.008Z,1027.85
2019-02-24T06:13:04.610Z,1027.83
2019-02-24T06:13:45.208Z,1027.86
2019-02-24T06:14:25.810Z,1027.81
2019-02-24T06:15:06.412Z,1027.82
2019-02-24T06:15:47.030Z,1027.86
2019-02-24T06:16:27.644Z,1027.9
2019-02-24T06:17:08.252Z,1027.86
2019-02-24T06:17:48.849Z,1027.92
2019-02-24T06:18:29.441Z,1027.94
2019-02-24T06:19:10.052Z,1027.95
2019-02-24T06:19:50.688Z,1027.93
2019-02-24T06:20:31.306Z,1027.95
2019-02-24T06:21:11.930Z,1027.95
2019-02-24T06:21:52.539Z,1027.98
2019-02-24T06:22:33.140Z,1027.97
2019-02-24T06:23:13.740Z,1027.99
2019-02-24T06:23:54.358Z,1027.96
2019-02-24T06:24:34.956Z,1028
2019-02-24T06:25:15.548Z,1027.97
2019-02-24T06:25:56.150Z,1027.98
2019-02-24T06:26:36.743Z,1028.01
2019-02-24T06:27:17.337Z,1027.99
2019-02-24T06:27:57.940Z,1028
2019-02-24T06:28:38.559Z,1027.99
2019-02-24T06:29:19.179Z,1028.07
2019-02-24T06:30:04.788Z,1028.09
2019-02-24T06:30:40.378Z,1028.13
2019-02-24T06:31:20.980Z,1028.17
2019-02-24T06:32:01.600Z,1028.18
2019-02-24T06:32:42.200Z,1028.17
2019-02-24T06:33:22.806Z,1028.2
2019-02-24T06:34:03.436Z,1028.18
2019-02-24T06:34:44.030Z,1028.24
2019-02-24T06:35:24.631Z,1028.25
2019-02-24T06:36:05.231Z,1028.27
2019-02-24T06:36:45.848Z,1028.26
2019-02-24T06:37:26.460Z,1028.32
2019-02-24T06:38:07.068Z,1028.3
2019-02-24T06:38:47.654Z,1028.39
2019-02-24T06:39:28.268Z,1028.33
2019-02-24T06:40:08.881Z,1028.38
2019-02-24T06:40:49.493Z,1028.4
2019-02-24T06:41:30.116Z,1028.43
2019-02-24T06:42:10.763Z,1028.43
2019-02-24T06:42:51.335Z,1028.41
2019-02-24T06:43:31.938Z,1028.44
2019-02-24T06:44:12.542Z,1028.42
2019-02-24T06:44:53.140Z,1028.47
2019-02-24T06:45:33.739Z,1028.48
2019-02-24T06:46:14.338Z,1028.52
2019-02-24T06:46:54.949Z,1028.51
2019-02-24T06:47:35.548Z,1028.48
2019-02-24T06:48:16.159Z,1028.47
2019-02-24T06:48:56.758Z,1028.48
2019-02-24T06:49:37.368Z,1028.44
2019-02-24T06:50:17.977Z,1028.44
2019-02-24T06:50:58.586Z,1028.42
2019-02-24T06:51:39.185Z,1028.43
2019-02-24T06:52:19.811Z,1028.52
2019-02-24T06:53:00.414Z,1028.46
2019-02-24T06:53:41.030Z,1028.46
2019-02-24T06:54:21.646Z,1028.48
2019-02-24T06:55:02.273Z,1028.49
2019-02-24T06:55:42.885Z,1028.48
2019-02-24T06:56:23.484Z,1028.47
2019-02-24T06:57:04.078Z,1028.5
2019-02-24T06:57:44.688Z,1028.48
2019-02-24T06:58:25.290Z,1028.49
2019-02-24T06:59:05.889Z,1028.49
2019-02-24T06:59:46.496Z,1028.49
2019-02-24T07:00:27.109Z,1028.53
2019-02-24T07:01:07.710Z,1028.6
2019-02-24T07:01:48.324Z,1028.57
2019-02-24T07:02:28.910Z,1028.61
2019-02-24T07:03:09.499Z,1028.59
2019-02-24T07:03:50.082Z,1028.61
2019-02-24T07:04:30.714Z,1028.66
2019-02-24T07:05:11.466Z,1028.68
2019-02-24T07:05:52.061Z,1028.69
2019-02-24T07:06:32.662Z,1028.67
2019-02-24T07:07:13.372Z,1028.7
2019-02-24T07:07:53.988Z,1028.75
2019-02-24T07:08:34.594Z,1028.77
2019-02-24T07:09:15.232Z,1028.78
2019-02-24T07:09:55.890Z,1028.79
2019-02-24T07:10:36.530Z,1028.77
2019-02-24T07:11:17.370Z,1028.79
2019-02-24T07:11:57.880Z,1028.83
2019-02-24T07:12:38.497Z,1028.83
2019-02-24T07:13:19.096Z,1028.89
2019-02-24T07:13:59.710Z,1028.9
2019-02-24T07:14:40.310Z,1028.9
2019-02-24T07:15:20.930Z,1028.92
2019-02-24T07:16:01.580Z,1028.92
2019-02-24T07:16:42.192Z,1028.95
2019-02-24T07:17:22.802Z,1028.97
2019-02-24T07:18:03.424Z,1029.02
2019-02-24T07:18:44.048Z,1028.98
2019-02-24T07:19:24.665Z,1029
2019-02-24T07:20:05.252Z,1029.02
2019-02-24T07:20:45.882Z,1029
2019-02-24T07:21:26.510Z,1029.06
2019-02-24T07:22:07.112Z,1029.02
2019-02-24T07:22:47.728Z,1029
2019-02-24T07:23:28.334Z,1029.02
2019-02-24T07:24:09.026Z,1029.02
2019-02-24T07:24:49.620Z,1029.01
2019-02-24T07:25:30.204Z,1029
2019-02-24T07:26:10.803Z,1029.02
2019-02-24T07:26:51.436Z,1028.98
2019-02-24T07:27:32.040Z,1028.99
2019-02-24T07:28:12.654Z,1029.01
2019-02-24T07:28:53.248Z,1028.97
2019-02-24T07:29:33.894Z,1028.98
2019-02-24T07:30:22.717Z,1028.97
2019-02-24T07:30:56.653Z,1029
2019-02-24T07:31:37.252Z,1029
2019-02-24T07:32:17.873Z,1029.01
2019-02-24T07:32:58.506Z,1029.01
2019-02-24T07:33:39.108Z,1029.05
2019-02-24T07:34:19.696Z,1029.06
2019-02-24T07:35:00.307Z,1029.07
2019-02-24T07:35:41.408Z,1029.1
2019-02-24T07:36:21.998Z,1029.11
2019-02-24T07:37:03.005Z,1029.15
2019-02-24T07:37:44.027Z,1029.12
2019-02-24T07:38:24.649Z,1029.15
2019-02-24T07:39:05.253Z,1029.15
2019-02-24T07:39:45.850Z,1029.17
2019-02-24T07:40:26.477Z,1029.2
2019-02-24T07:41:07.098Z,1029.24
2019-02-24T07:41:47.716Z,1029.23
2019-02-24T07:42:28.355Z,1029.24
2019-02-24T07:43:08.993Z,1029.23
2019-02-24T07:43:49.636Z,1029.29
2019-02-24T07:44:30.247Z,1029.31
2019-02-24T07:45:10.851Z,1029.25
2019-02-24T07:45:51.456Z,1029.23
2019-02-24T07:46:32.060Z,1029.28
2019-02-24T07:47:12.690Z,1029.31
2019-02-24T07:47:53.294Z,1029.3
2019-02-24T07:48:33.955Z,1029.29
2019-02-24T07:49:14.940Z,1029.31
2019-02-24T07:49:55.544Z,1029.35
2019-02-24T07:50:36.178Z,1029.38
2019-02-24T07:51:16.795Z,1029.4
2019-02-24T07:51:57.398Z,1029.45
2019-02-24T07:52:38.086Z,1029.42
2019-02-24T07:53:18.744Z,1029.46
2019-02-24T07:53:59.352Z,1029.48
2019-02-24T07:54:39.977Z,1029.51
2019-02-24T07:55:20.617Z,1029.48
2019-02-24T07:56:01.270Z,1029.53
2019-02-24T07:56:42.152Z,1029.5
2019-02-24T07:57:22.758Z,1029.54
2019-02-24T07:58:03.371Z,1029.62
2019-02-24T07:58:43.980Z,1029.6
2019-02-24T07:59:24.576Z,1029.63
2019-02-24T08:00:05.185Z,1029.63
2019-02-24T08:00:45.806Z,1029.62
2019-02-24T08:01:26.402Z,1029.64
2019-02-24T08:02:07.114Z,1029.65
2019-02-24T08:02:47.702Z,1029.67
2019-02-24T08:03:28.298Z,1029.65
2019-02-24T08:04:08.976Z,1029.66
2019-02-24T08:04:49.592Z,1029.66
2019-02-24T08:05:30.193Z,1029.69
2019-02-24T08:06:10.789Z,1029.68
2019-02-24T08:06:51.439Z,1029.71
2019-02-24T08:07:32.042Z,1029.69
2019-02-24T08:08:16.352Z,1029.69
2019-02-24T08:08:53.270Z,1029.73
2019-02-24T08:09:33.911Z,1029.77
2019-02-24T08:10:14.562Z,1029.75
2019-02-24T08:10:55.158Z,1029.73
2019-02-24T08:11:35.777Z,1029.74
2019-02-24T08:12:16.442Z,1029.74
2019-02-24T08:12:57.052Z,1029.75
2019-02-24T08:13:37.652Z,1029.77